createdAt,value
2022-11-16T00:03:37.895Z,10.6
2022-11-16T00:13:39.628Z,10.6
2022-11-16T00:23:41.791Z,10.5
2022-11-16T00:33:43.589Z,10.4
2022-11-16T00:43:45.914Z,10.4
2022-11-16T00:53:48.344Z,10.3
2022-11-16T01:03:50.293Z,10.3
2022-11-16T01:13:52.076Z,10.3
2022-11-16T01:23:53.776Z,10.3
2022-11-16T01:54:00.713Z,10.2
2022-11-16T02:04:03.066Z,10.2
2022-11-16T02:14:05.565Z,10.2
2022-11-16T02:24:07.247Z,10.2
2022-11-16T02:34:09.777Z,10.1
2022-11-16T02:44:11.715Z,10.1
2022-11-16T02:54:14.160Z,10.2
2022-11-16T03:04:15.802Z,10.2
2022-11-16T03:14:18.080Z,10.2
2022-11-16T03:24:20.579Z,10.3
2022-11-16T03:44:24.838Z,10.3
2022-11-16T03:54:27.193Z,10.2
2022-11-16T04:04:29.052Z,10.1
2022-11-16T04:14:31.244Z,10.1
2022-11-16T04:24:33.915Z,10.3
2022-11-16T04:34:35.753Z,10.3
2022-11-16T04:44:38.272Z,10.3
2022-11-16T04:54:40.898Z,10.4
2022-11-16T05:04:43.149Z,10.3
2022-11-16T05:14:45.755Z,10.3
2022-11-16T05:16:13.158Z,10.3
2022-11-16T05:24:56.402Z,10.3
2022-11-16T05:34:58.143Z,10.3
2022-11-16T05:45:00.485Z,10.3
2022-11-16T05:55:02.819Z,10.2
2022-11-16T06:05:04.725Z,10.2
2022-11-16T06:15:07.357Z,10.3
2022-11-16T06:25:09.747Z,10.2
2022-11-16T06:35:12.151Z,10.2
2022-11-16T06:45:14.597Z,10.1
2022-11-16T06:55:16.364Z,10.1
2022-11-16T07:05:18.383Z,10
2022-11-16T07:15:20.681Z,10
2022-11-16T07:25:22.399Z,10.1
2022-11-16T07:35:24.614Z,10.1
2022-11-16T07:45:26.534Z,10.2
2022-11-16T07:55:29.192Z,10.3
2022-11-16T08:05:31.161Z,10.3
2022-11-16T08:15:33.103Z,10.3
2022-11-16T08:25:35.384Z,10.3
2022-11-16T08:45:39.535Z,10.4
2022-11-16T08:55:42.193Z,10.5
2022-11-16T09:05:43.816Z,10.7
2022-11-16T09:15:46.237Z,11.1
2022-11-16T09:25:48.005Z,11.3
2022-11-16T09:35:50.151Z,11.6
2022-11-16T09:45:52.097Z,11.7
2022-11-16T09:55:54.618Z,12
2022-11-16T10:05:56.791Z,11.8
2022-11-16T10:15:59.397Z,12
2022-11-16T10:26:01.872Z,12.2
2022-11-16T10:36:03.626Z,12.1
2022-11-16T10:46:05.587Z,12.1
2022-11-16T10:56:07.258Z,11.4
2022-11-16T11:06:09.778Z,11.7
2022-11-16T11:16:12.324Z,11.9
2022-11-16T11:26:14.934Z,11.4
2022-11-16T11:36:16.747Z,11.4
2022-11-16T11:56:20.670Z,11.4
2022-11-16T12:06:22.961Z,12.3
2022-11-16T12:36:29.685Z,11.8
2022-11-16T12:46:31.722Z,12.3
2022-11-16T12:56:34.132Z,12.1
2022-11-16T13:06:35.859Z,12.1
2022-11-16T13:16:38.121Z,12.3
2022-11-16T13:26:40.651Z,11.9
2022-11-16T13:36:43.004Z,12.3
2022-11-16T13:46:55.076Z,12.5
2022-11-16T13:56:46.695Z,12.5
2022-11-16T14:06:48.781Z,12
2022-11-16T14:16:51.323Z,11.7
2022-11-16T14:26:53.784Z,11.6
2022-11-16T14:36:55.849Z,11.8
2022-11-16T14:46:58.329Z,11.7
2022-11-16T14:57:00.177Z,11.6
2022-11-16T15:07:02.364Z,11.6
2022-11-16T15:17:04.590Z,11.5
2022-11-16T15:27:07.041Z,11.5
2022-11-16T15:37:09.663Z,11.4
2022-11-16T15:47:11.874Z,11.2
2022-11-16T15:57:13.910Z,10.8
2022-11-16T16:07:16.210Z,10.6
2022-11-16T16:17:18.815Z,10.1
2022-11-16T16:27:21.288Z,9.8
2022-11-16T16:37:23.023Z,9.6
2022-11-16T16:47:25.223Z,9.1
2022-11-16T16:57:27.678Z,8.7
2022-11-16T17:17:31.861Z,8.9
2022-11-16T17:27:34.531Z,9.6
2022-11-16T17:37:37.137Z,9.8
2022-11-16T17:47:39.195Z,10.1
2022-11-16T17:57:40.878Z,10.2
2022-11-16T18:07:42.651Z,10.2
2022-11-16T18:17:45.123Z,10.1
2022-11-16T18:27:46.928Z,10.1
2022-11-16T18:37:48.917Z,9.8
2022-11-16T18:47:51.331Z,9.4
2022-11-16T18:57:53.399Z,9.2
2022-11-16T19:07:55.309Z,9.3
2022-11-16T19:18:19.682Z,9.5
2022-11-16T19:27:59.377Z,9.4
2022-11-16T19:38:01.421Z,9.3
2022-11-16T19:48:03.228Z,9.1
2022-11-16T20:08:07.337Z,9.1
2022-11-16T20:18:09.943Z,8.9
2022-11-16T20:28:11.987Z,8.7
2022-11-16T20:38:14.625Z,8.6
2022-11-16T20:48:16.995Z,8.6
2022-11-16T20:58:22.707Z,8.7
2022-11-16T21:18:27.929Z,8.7
2022-11-16T21:28:25.839Z,8.7
2022-11-16T21:38:28.142Z,8.7
2022-11-16T21:48:30.744Z,8.9
2022-11-16T21:58:32.562Z,8.9
2022-11-16T22:08:34.546Z,9
2022-11-16T22:18:37.140Z,9
2022-11-16T22:28:39.014Z,9.1
2022-11-16T22:38:41.390Z,9
2022-11-16T22:58:45.802Z,9
2022-11-16T23:08:48.070Z,9
2022-11-16T23:18:50.524Z,9
2022-11-16T23:28:52.519Z,9.2
2022-11-16T23:38:54.904Z,9.2
2022-11-16T23:48:56.714Z,9.2
